Terminal Aerodrome Forecast
Issued by NWS

Home | Current Version | Previous Version | Text Only | Print | Product List | Glossary On
Versions: 1 2 3 4 5 6 7 8 9 10 11 12
000
FTUS42 TJSJ 311137
TAFISX
TAF
TISX 311137Z 3112/0112 09014G20KT P6SM VCSH SCT021
      TEMPO 3112/3114 -SHRA BKN022
     FM311400 11015G25KT P6SM SCT025 SCT050
     FM312300 07010KT P6SM FEW025=

USA.gov is the U.S. government's official web portal to all federal, state and local government web resources and services.